Latest Weather Observations for Wattamolla

IDN60901

Issued at 8:35 am EDT Tuesday 21 October 2014 (issued every 10 minutes, with the page automatically refreshed every 10 minutes)

About weather observations | Map of Sydney area stations | Latest observations for Sydney area | Other Formats
Station Details ID: 066208 Name: WATTAMOLLA AWS Lat: -34.14 Lon: 151.12 Height: 44.0 m
Data from the previous 72 hours. | See also: Recent months for locations in New South Wales
Date/Time
EDT
Tmp

°C
App
Tmp
°C
Dew
Point
°C
Rel
Hum
%
Delta-T

°C
Wind Press
QNH
hPa
Press
MSL
hPa
Rain
since
9 am
mm
Dir
 
Spd
km/h
Gust
km/h
Spd
kts
Gust
kts
21/08:30am - - - - - SE 13 28 7 15 - - -
21/08:00am - - - - - SE 15 20 8 11 - - -
21/07:30am - - - - - SSE 17 24 9 13 - - -
21/07:00am - - - - - SE 13 24 7 13 - - -
21/06:30am - - - - - SE 13 20 7 11 - - -
21/06:00am - - - - - S 19 30 10 16 - - -
21/05:30am - - - - - SSW 17 28 9 15 - - -
21/05:00am - - - - - NW 7 11 4 6 - - -
21/04:30am - - - - - W 7 15 4 8 - - -
21/04:00am - - - - - S 20 28 11 15 - - -
21/03:30am - - - - - S 28 33 15 18 - - -
21/03:00am - - - - - S 24 32 13 17 - - -
21/02:30am - - - - - SE 28 32 15 17 - - -
21/02:00am - - - - - SSE 26 32 14 17 - - -
21/01:30am - - - - - SSE 28 37 15 20 - - -
21/01:00am - - - - - SSE 32 39 17 21 - - -
21/12:30am - - - - - SSE 26 39 14 21 - - -
21/12:00am - - - - - SE 28 35 15 19 - - -
 
Date/Time
EDT
Tmp

°C
App
Tmp
°C
Dew
Point
°C
Rel
Hum
%
Delta-T

°C
Wind Press
QNH
hPa
Press
MSL
hPa
Rain
since
9 am
mm
Dir
 
Spd
km/h
Gust
km/h
Spd
kts
Gust
kts
20/11:30pm - - - - - SE 26 33 14 18 - - -
20/11:00pm - - - - - SSE 26 41 14 22 - - -
20/10:30pm - - - - - SSE 33 43 18 23 - - -
20/10:00pm - - - - - S 30 43 16 23 - - -
20/09:30pm - - - - - SSE 26 39 14 21 - - -
20/09:01pm - - - - - S 28 46 15 25 - - -
20/09:00pm - - - - - S 26 44 14 24 - - -
20/08:30pm - - - - - S 30 39 16 21 - - -
20/08:00pm - - - - - S 46 54 25 29 - - -
20/07:55pm - - - - - S 28 52 15 28 - - -
20/07:30pm - - - - - SSE 26 37 14 20 - - -
20/07:00pm - - - - - S 32 48 17 26 - - -
20/06:30pm - - - - - SSE 35 46 19 25 - - -
20/06:00pm - - - - - S 43 57 23 31 - - -
20/05:30pm - - - - - SSE 39 52 21 28 - - -
20/05:18pm - - - - - S 37 56 20 30 - - -
20/05:00pm - - - - - S 39 54 21 29 - - -
20/04:32pm - - - - - S 41 59 22 32 - - -
20/04:30pm - - - - - S 43 59 23 32 - - -
20/04:00pm - - - - - S 35 50 19 27 - - -
20/03:30pm - - - - - S 39 59 21 32 - - -
20/03:26pm - - - - - S 41 59 22 32 - - -
20/03:00pm - - - - - S 50 61 27 33 - - -
20/02:51pm - - - - - S 39 59 21 32 - - -
20/02:30pm - - - - - S 46 54 25 29 - - -
20/02:00pm - - - - - S 44 54 24 29 - - -
20/01:30pm - - - - - S 50 59 27 32 - - -
20/01:00pm - - - - - S 46 65 25 35 - - -
20/12:56pm - - - - - S 44 65 24 35 - - -
20/12:30pm - - - - - S 46 54 25 29 - - -
20/12:00pm - - - - - S 52 57 28 31 - - -
20/11:30am - - - - - S 57 67 31 36 - - -
20/11:00am - - - - - S 65 76 35 41 - - -
20/10:30am - - - - - S 63 76 34 41 - - -
20/10:00am - - - - - S 70 82 38 44 - - -
20/09:30am - - - - - S 69 83 37 45 - - -
20/09:00am - - - - - S 70 83 38 45 - - -
20/08:30am - - - - - S 72 83 39 45 - - -
20/08:00am - - - - - S 70 83 38 45 - - -
20/07:30am - - - - - S 69 83 37 45 - - -
20/07:00am - - - - - S 74 87 40 47 - - -
20/06:30am - - - - - S 72 91 39 49 - - -
20/06:00am - - - - - S 74 87 40 47 - - -
20/05:30am - - - - - S 76 89 41 48 - - -
20/05:23am - - - - - S 72 85 39 46 - - -
20/05:22am - - - - - S 44 82 24 44 - - -
20/05:08am - - - - - SSW 30 56 16 30 - - -
20/05:00am - - - - - WSW 20 24 11 13 - - -
20/04:30am - - - - - NNW 20 22 11 12 - - -
20/04:00am - - - - - N 9 13 5 7 - - -
20/03:30am - - - - - N 15 19 8 10 - - -
20/03:00am - - - - - N 19 26 10 14 - - -
20/02:30am - - - - - SE 7 13 4 7 - - -
20/02:00am - - - - - N 15 20 8 11 - - -
20/01:30am - - - - - N 9 13 5 7 - - -
20/01:00am - - - - - N 13 17 7 9 - - -
20/12:30am - - - - - N 9 13 5 7 - - -
20/12:00am - - - - - N 7 11 4 6 - - -
 
Date/Time
EDT
Tmp

°C
App
Tmp
°C
Dew
Point
°C
Rel
Hum
%
Delta-T

°C
Wind Press
QNH
hPa
Press
MSL
hPa
Rain
since
9 am
mm
Dir
 
Spd
km/h
Gust
km/h
Spd
kts
Gust
kts
19/11:30pm - - - - - N 17 24 9 13 - - -
19/11:00pm - - - - - N 11 15 6 8 - - -
19/10:30pm - - - - - N 13 15 7 8 - - -
19/10:00pm - - - - - N 22 30 12 16 - - -
19/09:30pm - - - - - N 28 35 15 19 - - -
19/09:00pm - - - - - N 28 37 15 20 - - -
19/08:30pm - - - - - N 28 41 15 22 - - -
19/08:00pm - - - - - N 22 33 12 18 - - -
19/07:30pm - - - - - N 19 26 10 14 - - -
19/07:00pm - - - - - N 26 35 14 19 - - -
19/06:30pm - - - - - NNE 28 41 15 22 - - -
19/06:00pm - - - - - NNE 28 39 15 21 - - -
19/05:30pm - - - - - NNE 28 41 15 22 - - -
19/05:00pm - - - - - NNE 22 35 12 19 - - -
19/04:00pm - - - - - NE 20 33 11 18 - - -
19/03:30pm - - - - - NE 20 32 11 17 - - -
19/03:00pm - - - - - NE 20 30 11 16 - - -
19/02:30pm - - - - - NE 22 30 12 16 - - -
19/01:00pm - - - - - NE 24 32 13 17 - - -
19/12:30pm - - - - - N 20 32 11 17 - - -
19/12:00pm - - - - - N 20 30 11 16 - - -
19/11:30am - - - - - N 20 32 11 17 - - -
19/11:00am - - - - - N 28 35 15 19 - - -
19/10:30am - - - - - N 17 26 9 14 - - -
19/10:00am - - - - - N 17 28 9 15 - - -
19/09:30am - - - - - N 20 30 11 16 - - -
19/09:00am - - - - - NNW 11 19 6 10 - - -
19/08:30am - - - - - N 19 28 10 15 - - -
19/08:00am - - - - - NNW 17 24 9 13 - - -
19/07:30am - - - - - N 13 15 7 8 - - -
19/07:00am - - - - - N 13 15 7 8 - - -
19/06:30am - - - - - N 15 15 8 8 - - -
19/06:00am - - - - - N 15 17 8 9 - - -
19/05:30am - - - - - N 15 15 8 8 - - -
19/05:00am - - - - - N 13 15 7 8 - - -
19/04:30am - - - - - N 15 17 8 9 - - -
19/04:00am - - - - - NNW 13 17 7 9 - - -
19/03:30am - - - - - N 11 15 6 8 - - -
19/03:00am - - - - - N 13 15 7 8 - - -
19/02:30am - - - - - N 13 17 7 9 - - -
19/02:00am - - - - - N 13 17 7 9 - - -
19/01:30am - - - - - N 13 17 7 9 - - -
19/01:00am - - - - - N 13 17 7 9 - - -
19/12:30am - - - - - N 13 17 7 9 - - -
19/12:00am - - - - - NNW 15 19 8 10 - - -
 
Date/Time
EDT
Tmp

°C
App
Tmp
°C
Dew
Point
°C
Rel
Hum
%
Delta-T

°C
Wind Press
QNH
hPa
Press
MSL
hPa
Rain
since
9 am
mm
Dir
 
Spd
km/h
Gust
km/h
Spd
kts
Gust
kts
18/11:30pm - - - - - N 15 17 8 9 - - -
18/11:00pm - - - - - N 15 19 8 10 - - -
18/10:30pm - - - - - N 17 19 9 10 - - -
18/10:00pm - - - - - N 15 15 8 8 - - -
18/09:30pm - - - - - N 15 19 8 10 - - -
18/09:00pm - - - - - N 17 19 9 10 - - -
18/08:30pm - - - - - NNE 17 19 9 10 - - -
18/08:00pm - - - - - NNE 15 20 8 11 - - -
18/07:30pm - - - - - NNE 15 22 8 12 - - -
18/07:00pm - - - - - NE 17 26 9 14 - - -
18/06:30pm - - - - - NE 17 26 9 14 - - -
18/06:00pm - - - - - NE 17 24 9 13 - - -
18/05:30pm - - - - - ENE 15 22 8 12 - - -
18/05:00pm - - - - - ENE 17 22 9 12 - - -
18/04:30pm - - - - - E 15 20 8 11 - - -
18/04:00pm - - - - - ENE 17 24 9 13 - - -
18/03:30pm - - - - - ENE 17 24 9 13 - - -
18/03:00pm - - - - - E 13 19 7 10 - - -
18/02:30pm - - - - - ESE 13 19 7 10 - - -
18/02:00pm - - - - - ESE 11 19 6 10 - - -
18/01:30pm - - - - - ESE 13 19 7 10 - - -
18/01:00pm - - - - - SE 13 17 7 9 - - -
18/12:30pm - - - - - SE 13 19 7 10 - - -
18/12:00pm - - - - - SE 11 13 6 7 - - -
18/11:30am - - - - - SSE 11 13 6 7 - - -
18/11:00am - - - - - S 11 15 6 8 - - -
18/10:30am - - - - - S 11 17 6 9 - - -
18/10:00am - - - - - S 17 20 9 11 - - -
18/09:30am - - - - - S 15 19 8 10 - - -
18/09:00am - - - - - S 13 15 7 8 - - -

Latest Capital City Observations: Canberra | Sydney | Melbourne | Brisbane | Adelaide | Perth | Hobart | Darwin

Other Formats:

Comma delimited format used in spreadsheet applications
http://www.bom.gov.au/fwo/IDN60901/IDN60901.95752.axf

JavaScript Object Notation format (JSON) in row-major order
http://www.bom.gov.au/fwo/IDN60901/IDN60901.95752.json